sensor_id;sensor_type;location;lat;lon;timestamp;pressure;altitude;pressure_sealevel;temperature;humidity
43155;BME280;34212;51.018;13.586;2023-02-28T00:03:37;99090.16;;;1.83;90.46
43155;BME280;34212;51.018;13.586;2023-02-28T00:08:38;99092.13;;;1.80;90.40
43155;BME280;34212;51.018;13.586;2023-02-28T00:13:44;99102.75;;;1.78;90.20
43155;BME280;34212;51.018;13.586;2023-02-28T00:18:48;99091.28;;;1.79;90.66
43155;BME280;34212;51.018;13.586;2023-02-28T00:23:50;99091.47;;;1.76;90.13
43155;BME280;34212;51.018;13.586;2023-02-28T00:28:52;99084.72;;;1.72;90.26
43155;BME280;34212;51.018;13.586;2023-02-28T00:33:54;99084.97;;;1.68;89.96
43155;BME280;34212;51.018;13.586;2023-02-28T00:38:55;99084.31;;;1.64;90.08
43155;BME280;34212;51.018;13.586;2023-02-28T00:43:56;99076.25;;;1.67;90.81
43155;BME280;34212;51.018;13.586;2023-02-28T00:48:58;99083.75;;;1.73;90.70
43155;BME280;34212;51.018;13.586;2023-02-28T00:53:59;99083.00;;;1.71;90.22
43155;BME280;34212;51.018;13.586;2023-02-28T00:59:01;99083.47;;;1.64;89.57
43155;BME280;34212;51.018;13.586;2023-02-28T01:04:02;99073.69;;;1.51;89.30
43155;BME280;34212;51.018;13.586;2023-02-28T01:09:06;99070.47;;;1.46;89.46
43155;BME280;34212;51.018;13.586;2023-02-28T01:14:08;99080.28;;;1.44;89.83
43155;BME280;34212;51.018;13.586;2023-02-28T01:19:11;99079.44;;;1.44;89.96
43155;BME280;34212;51.018;13.586;2023-02-28T01:24:12;99078.47;;;1.45;89.96
43155;BME280;34212;51.018;13.586;2023-02-28T01:29:15;99073.88;;;1.48;90.38
43155;BME280;34212;51.018;13.586;2023-02-28T01:34:16;99069.28;;;1.52;90.67
43155;BME280;34212;51.018;13.586;2023-02-28T01:39:20;99069.09;;;1.55;90.18
43155;BME280;34212;51.018;13.586;2023-02-28T01:50:04;99063.00;;;1.54;90.24
43155;BME280;34212;51.018;13.586;2023-02-28T01:55:07;99065.56;;;1.56;90.21
43155;BME280;34212;51.018;13.586;2023-02-28T02:00:10;99060.28;;;1.56;90.02
43155;BME280;34212;51.018;13.586;2023-02-28T02:05:23;99058.69;;;1.53;89.86
43155;BME280;34212;51.018;13.586;2023-02-28T02:10:31;99053.50;;;1.52;90.11
43155;BME280;34212;51.018;13.586;2023-02-28T02:15:39;99058.75;;;1.52;89.51
43155;BME280;34212;51.018;13.586;2023-02-28T02:21:20;99053.03;;;1.45;89.06
43155;BME280;34212;51.018;13.586;2023-02-28T02:31:52;99055.44;;;1.34;89.19
43155;BME280;34212;51.018;13.586;2023-02-28T02:42:14;99051.25;;;1.31;89.57
43155;BME280;34212;51.018;13.586;2023-02-28T02:47:20;99050.13;;;1.35;89.74
43155;BME280;34212;51.018;13.586;2023-02-28T02:52:27;99054.41;;;1.36;89.97
43155;BME280;34212;51.018;13.586;2023-02-28T02:57:38;99046.53;;;1.36;89.70
43155;BME280;34212;51.018;13.586;2023-02-28T03:02:43;99056.22;;;1.36;89.80
43155;BME280;34212;51.018;13.586;2023-02-28T03:07:45;99055.38;;;1.35;89.51
43155;BME280;34212;51.018;13.586;2023-02-28T03:18:48;99051.06;;;1.34;89.49
43155;BME280;34212;51.018;13.586;2023-02-28T03:29:16;99048.03;;;1.26;89.33
43155;BME280;34212;51.018;13.586;2023-02-28T03:34:27;99044.81;;;1.21;89.05
43155;BME280;34212;51.018;13.586;2023-02-28T03:39:40;99043.31;;;1.17;88.94
43155;BME280;34212;51.018;13.586;2023-02-28T03:45:20;99049.78;;;1.11;89.04
43155;BME280;34212;51.018;13.586;2023-02-28T03:50:25;99049.28;;;1.05;88.77
43155;BME280;34212;51.018;13.586;2023-02-28T03:55:32;99050.50;;;0.99;88.46
43155;BME280;34212;51.018;13.586;2023-02-28T04:00:38;99053.41;;;0.95;88.66
43155;BME280;34212;51.018;13.586;2023-02-28T04:05:48;99063.97;;;0.93;88.47
43155;BME280;34212;51.018;13.586;2023-02-28T04:11:19;99064.44;;;0.85;88.18
43155;BME280;34212;51.018;13.586;2023-02-28T04:16:18;99076.06;;;0.81;87.98
43155;BME280;34212;51.018;13.586;2023-02-28T04:21:37;99066.63;;;0.77;88.02
43155;BME280;34212;51.018;13.586;2023-02-28T04:26:46;99073.94;;;0.72;87.45
43155;BME280;34212;51.018;13.586;2023-02-28T04:31:48;99077.00;;;0.64;87.53
43155;BME280;34212;51.018;13.586;2023-02-28T04:36:50;99079.13;;;0.58;87.59
43155;BME280;34212;51.018;13.586;2023-02-28T04:42:12;99071.75;;;0.49;87.23
43155;BME280;34212;51.018;13.586;2023-02-28T04:47:14;99076.50;;;0.42;86.88
43155;BME280;34212;51.018;13.586;2023-02-28T04:52:15;99084.78;;;0.34;86.95
43155;BME280;34212;51.018;13.586;2023-02-28T04:57:17;99082.09;;;0.20;86.54
43155;BME280;34212;51.018;13.586;2023-02-28T05:02:18;99083.59;;;0.08;86.19
43155;BME280;34212;51.018;13.586;2023-02-28T05:07:22;99093.91;;;-0.05;86.05
43155;BME280;34212;51.018;13.586;2023-02-28T05:12:23;99088.22;;;-0.13;86.02
43155;BME280;34212;51.018;13.586;2023-02-28T05:17:25;99093.78;;;-0.19;85.97
43155;BME280;34212;51.018;13.586;2023-02-28T05:22:26;99097.50;;;-0.23;85.81
43155;BME280;34212;51.018;13.586;2023-02-28T05:27:28;99101.97;;;-0.25;85.54
43155;BME280;34212;51.018;13.586;2023-02-28T05:32:29;99105.69;;;-0.29;85.57
43155;BME280;34212;51.018;13.586;2023-02-28T05:37:31;99097.97;;;-0.32;85.90
43155;BME280;34212;51.018;13.586;2023-02-28T05:42:33;99106.00;;;-0.35;85.66
43155;BME280;34212;51.018;13.586;2023-02-28T05:47:35;99103.38;;;-0.35;85.73
43155;BME280;34212;51.018;13.586;2023-02-28T05:52:36;99102.63;;;-0.37;85.72
43155;BME280;34212;51.018;13.586;2023-02-28T05:57:38;99111.56;;;-0.41;85.42
43155;BME280;34212;51.018;13.586;2023-02-28T06:02:40;99106.31;;;-0.41;85.27
43155;BME280;34212;51.018;13.586;2023-02-28T06:07:42;99119.25;;;-0.38;84.94
43155;BME280;34212;51.018;13.586;2023-02-28T06:12:44;99118.69;;;-0.43;85.00
43155;BME280;34212;51.018;13.586;2023-02-28T06:17:45;99118.69;;;-0.43;85.32
43155;BME280;34212;51.018;13.586;2023-02-28T06:22:48;99122.88;;;-0.41;85.48
43155;BME280;34212;51.018;13.586;2023-02-28T06:27:52;99129.00;;;-0.40;85.26
43155;BME280;34212;51.018;13.586;2023-02-28T06:32:54;99135.16;;;-0.41;85.25
43155;BME280;34212;51.018;13.586;2023-02-28T06:37:56;99142.09;;;-0.40;85.35
43155;BME280;34212;51.018;13.586;2023-02-28T06:42:57;99143.84;;;-0.41;85.57
43155;BME280;34212;51.018;13.586;2023-02-28T06:47:58;99155.91;;;-0.37;85.60
43155;BME280;34212;51.018;13.586;2023-02-28T06:53:01;99162.69;;;-0.33;85.85
43155;BME280;34212;51.018;13.586;2023-02-28T06:58:02;99172.00;;;-0.27;85.65
43155;BME280;34212;51.018;13.586;2023-02-28T07:03:04;99171.59;;;-0.19;86.51
43155;BME280;34212;51.018;13.586;2023-02-28T07:08:05;99179.94;;;-0.11;85.89
43155;BME280;34212;51.018;13.586;2023-02-28T07:13:08;99170.22;;;-0.09;86.36
43155;BME280;34212;51.018;13.586;2023-02-28T07:18:10;99182.22;;;-0.05;86.39
43155;BME280;34212;51.018;13.586;2023-02-28T07:23:11;99190.00;;;0.14;87.73
43155;BME280;34212;51.018;13.586;2023-02-28T07:28:13;99177.94;;;0.43;88.80
43155;BME280;34212;51.018;13.586;2023-02-28T07:33:15;99189.50;;;0.72;90.02
43155;BME280;34212;51.018;13.586;2023-02-28T07:38:16;99185.41;;;0.98;90.12
43155;BME280;34212;51.018;13.586;2023-02-28T07:43:18;99181.66;;;1.18;90.78
43155;BME280;34212;51.018;13.586;2023-02-28T07:48:19;99181.88;;;1.29;90.17
43155;BME280;34212;51.018;13.586;2023-02-28T07:53:21;99186.38;;;1.27;89.39
43155;BME280;34212;51.018;13.586;2023-02-28T07:58:23;99184.88;;;1.23;89.24
43155;BME280;34212;51.018;13.586;2023-02-28T08:03:25;99186.56;;;1.24;89.37
43155;BME280;34212;51.018;13.586;2023-02-28T08:08:26;99187.31;;;1.26;89.38
43155;BME280;34212;51.018;13.586;2023-02-28T08:13:32;99185.84;;;1.36;89.94
43155;BME280;34212;51.018;13.586;2023-02-28T08:18:33;99189.84;;;1.44;89.93
43155;BME280;34212;51.018;13.586;2023-02-28T08:23:35;99183.81;;;1.42;89.31
43155;BME280;34212;51.018;13.586;2023-02-28T08:28:37;99187.38;;;1.41;90.23
43155;BME280;34212;51.018;13.586;2023-02-28T08:33:39;99200.22;;;1.61;90.59
43155;BME280;34212;51.018;13.586;2023-02-28T08:38:41;99196.69;;;1.76;90.99
43155;BME280;34212;51.018;13.586;2023-02-28T08:43:42;99202.41;;;1.83;90.47
43155;BME280;34212;51.018;13.586;2023-02-28T08:48:44;99200.38;;;1.88;90.27
43155;BME280;34212;51.018;13.586;2023-02-28T08:53:46;99202.53;;;1.96;90.95
43155;BME280;34212;51.018;13.586;2023-02-28T08:58:50;99200.38;;;2.02;90.46
43155;BME280;34212;51.018;13.586;2023-02-28T09:03:52;99200.19;;;2.05;90.39
43155;BME280;34212;51.018;13.586;2023-02-28T09:08:59;99196.47;;;2.10;90.30
43155;BME280;34212;51.018;13.586;2023-02-28T09:14:02;99203.03;;;2.17;90.80
43155;BME280;34212;51.018;13.586;2023-02-28T09:19:04;99201.34;;;2.30;90.46
43155;BME280;34212;51.018;13.586;2023-02-28T09:24:06;99198.06;;;2.41;91.14
43155;BME280;34212;51.018;13.586;2023-02-28T09:29:08;99202.38;;;2.42;90.49
43155;BME280;34212;51.018;13.586;2023-02-28T09:34:10;99193.34;;;2.46;90.98
43155;BME280;34212;51.018;13.586;2023-02-28T09:39:12;99192.88;;;2.53;91.06
43155;BME280;34212;51.018;13.586;2023-02-28T09:44:38;99194.03;;;2.49;90.08
43155;BME280;34212;51.018;13.586;2023-02-28T09:49:46;99186.69;;;2.40;90.24
43155;BME280;34212;51.018;13.586;2023-02-28T09:54:48;99192.69;;;2.42;90.75
43155;BME280;34212;51.018;13.586;2023-02-28T10:00:17;99181.72;;;2.50;90.33
43155;BME280;34212;51.018;13.586;2023-02-28T10:05:23;99189.19;;;2.70;91.96
43155;BME280;34212;51.018;13.586;2023-02-28T10:10:33;99195.25;;;2.99;92.67
43155;BME280;34212;51.018;13.586;2023-02-28T10:15:36;99176.88;;;3.12;91.57
43155;BME280;34212;51.018;13.586;2023-02-28T10:20:39;99177.75;;;3.26;92.15
43155;BME280;34212;51.018;13.586;2023-02-28T10:25:45;99191.78;;;3.26;90.95
43155;BME280;34212;51.018;13.586;2023-02-28T10:30:51;99192.50;;;3.15;90.43
43155;BME280;34212;51.018;13.586;2023-02-28T10:35:53;99189.81;;;3.03;90.75
43155;BME280;34212;51.018;13.586;2023-02-28T10:41:04;99192.19;;;2.93;90.62
43155;BME280;34212;51.018;13.586;2023-02-28T10:51:13;99186.91;;;2.93;90.65
43155;BME280;34212;51.018;13.586;2023-02-28T10:56:18;99183.72;;;2.88;91.22
43155;BME280;34212;51.018;13.586;2023-02-28T11:01:36;99183.13;;;2.97;91.21
43155;BME280;34212;51.018;13.586;2023-02-28T11:06:40;99179.91;;;3.06;91.03
43155;BME280;34212;51.018;13.586;2023-02-28T11:11:46;99169.09;;;3.23;92.12
43155;BME280;34212;51.018;13.586;2023-02-28T11:16:49;99164.78;;;3.62;93.07
43155;BME280;34212;51.018;13.586;2023-02-28T11:21:53;99156.88;;;3.88;93.09
43155;BME280;34212;51.018;13.586;2023-02-28T11:26:56;99167.16;;;4.05;92.51
43155;BME280;34212;51.018;13.586;2023-02-28T11:37:03;99153.50;;;4.24;92.35
43155;BME280;34212;51.018;13.586;2023-02-28T11:42:50;99146.94;;;4.30;91.29
43155;BME280;34212;51.018;13.586;2023-02-28T12:04:13;99139.66;;;3.95;90.22
43155;BME280;34212;51.018;13.586;2023-02-28T12:09:44;99132.59;;;3.83;90.04
43155;BME280;34212;51.018;13.586;2023-02-28T12:15:13;99133.97;;;3.76;90.49
43155;BME280;34212;51.018;13.586;2023-02-28T12:20:28;99130.38;;;3.77;90.35
43155;BME280;34212;51.018;13.586;2023-02-28T12:31:18;99130.28;;;3.78;90.64
43155;BME280;34212;51.018;13.586;2023-02-28T12:36:23;99131.88;;;3.81;91.05
43155;BME280;34212;51.018;13.586;2023-02-28T12:41:35;99126.38;;;3.84;91.19
43155;BME280;34212;51.018;13.586;2023-02-28T12:46:42;99127.22;;;3.84;90.97
43155;BME280;34212;51.018;13.586;2023-02-28T12:51:45;99119.19;;;3.86;90.35
43155;BME280;34212;51.018;13.586;2023-02-28T13:02:19;99117.28;;;3.88;89.66
43155;BME280;34212;51.018;13.586;2023-02-28T13:07:33;99112.13;;;3.99;90.56
43155;BME280;34212;51.018;13.586;2023-02-28T13:12:47;99115.69;;;4.24;90.48
43155;BME280;34212;51.018;13.586;2023-02-28T13:17:54;99110.56;;;4.46;91.15
43155;BME280;34212;51.018;13.586;2023-02-28T13:22:57;99109.09;;;5.85;98.03
43155;BME280;34212;51.018;13.586;2023-02-28T13:28:00;99108.81;;;7.53;93.05
43155;BME280;34212;51.018;13.586;2023-02-28T13:38:35;99105.44;;;8.95;82.59
43155;BME280;34212;51.018;13.586;2023-02-28T13:54:50;99094.69;;;7.11;84.27
43155;BME280;34212;51.018;13.586;2023-02-28T14:00:29;99091.09;;;6.35;83.87
43155;BME280;34212;51.018;13.586;2023-02-28T14:05:33;99088.13;;;5.59;85.78
43155;BME280;34212;51.018;13.586;2023-02-28T14:10:44;99092.34;;;5.15;86.87
43155;BME280;34212;51.018;13.586;2023-02-28T14:15:49;99087.88;;;4.92;87.68
43155;BME280;34212;51.018;13.586;2023-02-28T14:21:21;99076.59;;;4.66;87.15
43155;BME280;34212;51.018;13.586;2023-02-28T14:31:57;99077.50;;;4.40;87.59
43155;BME280;34212;51.018;13.586;2023-02-28T14:37:01;99073.50;;;4.35;88.42
43155;BME280;34212;51.018;13.586;2023-02-28T14:42:30;99065.81;;;4.32;88.26
43155;BME280;34212;51.018;13.586;2023-02-28T14:47:33;99066.38;;;4.24;88.13
43155;BME280;34212;51.018;13.586;2023-02-28T14:52:36;99073.34;;;4.12;88.01
43155;BME280;34212;51.018;13.586;2023-02-28T14:57:52;99075.88;;;4.01;87.32
43155;BME280;34212;51.018;13.586;2023-02-28T15:02:56;99080.34;;;3.88;87.74
43155;BME280;34212;51.018;13.586;2023-02-28T15:08:16;99079.09;;;3.81;88.24
43155;BME280;34212;51.018;13.586;2023-02-28T15:13:18;99080.78;;;3.69;88.29
43155;BME280;34212;51.018;13.586;2023-02-28T15:23:22;99074.53;;;3.44;88.38
43155;BME280;34212;51.018;13.586;2023-02-28T15:28:24;99073.16;;;3.39;87.94
43155;BME280;34212;51.018;13.586;2023-02-28T15:33:30;99078.84;;;3.33;88.28
43155;BME280;34212;51.018;13.586;2023-02-28T15:38:35;99074.84;;;3.27;88.46
43155;BME280;34212;51.018;13.586;2023-02-28T15:43:38;99077.97;;;3.19;88.25
43155;BME280;34212;51.018;13.586;2023-02-28T15:48:51;99080.06;;;3.14;88.79
43155;BME280;34212;51.018;13.586;2023-02-28T15:53:59;99085.00;;;3.06;88.37
43155;BME280;34212;51.018;13.586;2023-02-28T15:59:05;99093.31;;;3.00;88.59
43155;BME280;34212;51.018;13.586;2023-02-28T16:04:17;99080.44;;;2.95;89.06
43155;BME280;34212;51.018;13.586;2023-02-28T16:09:19;99086.97;;;2.90;89.46
43155;BME280;34212;51.018;13.586;2023-02-28T16:14:25;99087.16;;;2.87;88.93
43155;BME280;34212;51.018;13.586;2023-02-28T16:19:32;99078.72;;;2.82;89.21
43155;BME280;34212;51.018;13.586;2023-02-28T16:24:34;99091.97;;;2.80;89.31
43155;BME280;34212;51.018;13.586;2023-02-28T16:29:36;99079.19;;;2.74;88.33
43155;BME280;34212;51.018;13.586;2023-02-28T16:34:38;99082.34;;;2.66;88.98
43155;BME280;34212;51.018;13.586;2023-02-28T16:39:41;99082.72;;;2.60;88.35
43155;BME280;34212;51.018;13.586;2023-02-28T16:44:42;99084.06;;;2.53;88.02
43155;BME280;34212;51.018;13.586;2023-02-28T16:49:44;99090.84;;;2.43;87.48
43155;BME280;34212;51.018;13.586;2023-02-28T16:54:45;99088.78;;;2.34;87.92
43155;BME280;34212;51.018;13.586;2023-02-28T16:59:48;99083.94;;;2.27;87.35
43155;BME280;34212;51.018;13.586;2023-02-28T17:04:51;99092.22;;;2.21;87.10
43155;BME280;34212;51.018;13.586;2023-02-28T17:09:53;99096.28;;;2.13;87.68
43155;BME280;34212;51.018;13.586;2023-02-28T17:14:54;99099.34;;;2.05;87.44
43155;BME280;34212;51.018;13.586;2023-02-28T17:19:56;99100.56;;;1.99;87.50
43155;BME280;34212;51.018;13.586;2023-02-28T17:24:57;99100.97;;;1.93;87.61
43155;BME280;34212;51.018;13.586;2023-02-28T17:30:00;99108.31;;;1.88;87.47
43155;BME280;34212;51.018;13.586;2023-02-28T17:35:02;99109.50;;;1.82;87.60
43155;BME280;34212;51.018;13.586;2023-02-28T17:40:04;99111.56;;;1.77;87.89
43155;BME280;34212;51.018;13.586;2023-02-28T17:45:06;99107.53;;;1.72;87.66
43155;BME280;34212;51.018;13.586;2023-02-28T17:50:15;99098.22;;;1.66;87.79
43155;BME280;34212;51.018;13.586;2023-02-28T17:55:17;99093.34;;;1.60;87.90
43155;BME280;34212;51.018;13.586;2023-02-28T18:00:20;99097.34;;;1.51;88.04
43155;BME280;34212;51.018;13.586;2023-02-28T18:05:25;99091.63;;;1.45;87.52
43155;BME280;34212;51.018;13.586;2023-02-28T18:10:26;99077.06;;;1.39;87.79
43155;BME280;34212;51.018;13.586;2023-02-28T18:15:28;99088.78;;;1.33;87.94
43155;BME280;34212;51.018;13.586;2023-02-28T18:20:29;99092.63;;;1.28;87.32
43155;BME280;34212;51.018;13.586;2023-02-28T18:25:31;99081.59;;;1.21;87.24
43155;BME280;34212;51.018;13.586;2023-02-28T18:30:35;99096.63;;;1.19;86.77
43155;BME280;34212;51.018;13.586;2023-02-28T18:35:38;99085.47;;;1.15;86.72
43155;BME280;34212;51.018;13.586;2023-02-28T18:40:41;99082.91;;;1.14;86.81
43155;BME280;34212;51.018;13.586;2023-02-28T18:45:43;99086.50;;;1.13;86.65
43155;BME280;34212;51.018;13.586;2023-02-28T18:50:45;99086.66;;;1.10;86.81
43155;BME280;34212;51.018;13.586;2023-02-28T18:55:47;99091.31;;;1.05;86.48
43155;BME280;34212;51.018;13.586;2023-02-28T19:00:48;99081.09;;;1.00;86.70
43155;BME280;34212;51.018;13.586;2023-02-28T19:05:58;99081.16;;;0.99;86.13
43155;BME280;34212;51.018;13.586;2023-02-28T19:11:08;99075.34;;;0.94;85.99
43155;BME280;34212;51.018;13.586;2023-02-28T19:16:12;99080.09;;;0.87;86.14
43155;BME280;34212;51.018;13.586;2023-02-28T19:21:16;99083.94;;;0.81;86.15
43155;BME280;34212;51.018;13.586;2023-02-28T19:26:21;99079.78;;;0.77;86.41
43155;BME280;34212;51.018;13.586;2023-02-28T19:31:24;99080.03;;;0.73;86.28
43155;BME280;34212;51.018;13.586;2023-02-28T19:36:26;99082.91;;;0.68;86.14
43155;BME280;34212;51.018;13.586;2023-02-28T19:41:28;99083.84;;;0.67;86.50
43155;BME280;34212;51.018;13.586;2023-02-28T19:46:30;99077.50;;;0.71;87.70
43155;BME280;34212;51.018;13.586;2023-02-28T19:51:32;99082.56;;;0.74;88.23
43155;BME280;34212;51.018;13.586;2023-02-28T19:56:34;99083.50;;;0.73;88.41
43155;BME280;34212;51.018;13.586;2023-02-28T20:01:36;99089.72;;;0.72;87.90
43155;BME280;34212;51.018;13.586;2023-02-28T20:06:38;99093.41;;;0.68;87.84
43155;BME280;34212;51.018;13.586;2023-02-28T20:11:40;99094.72;;;0.61;87.74
43155;BME280;34212;51.018;13.586;2023-02-28T20:16:42;99095.88;;;0.55;87.48
43155;BME280;34212;51.018;13.586;2023-02-28T20:21:44;99104.78;;;0.53;87.42
43155;BME280;34212;51.018;13.586;2023-02-28T20:26:45;99098.84;;;0.49;87.09
43155;BME280;34212;51.018;13.586;2023-02-28T20:31:47;99098.19;;;0.45;86.96
43155;BME280;34212;51.018;13.586;2023-02-28T20:36:48;99100.19;;;0.40;86.95
43155;BME280;34212;51.018;13.586;2023-02-28T20:41:50;99102.81;;;0.40;87.03
43155;BME280;34212;51.018;13.586;2023-02-28T20:46:51;99096.00;;;0.38;86.94
43155;BME280;34212;51.018;13.586;2023-02-28T20:51:53;99090.03;;;0.34;86.26
43155;BME280;34212;51.018;13.586;2023-02-28T20:56:55;99106.16;;;0.28;86.16
43155;BME280;34212;51.018;13.586;2023-02-28T21:01:56;99103.41;;;0.14;85.80
43155;BME280;34212;51.018;13.586;2023-02-28T21:06:58;99105.91;;;-0.01;86.29
43155;BME280;34212;51.018;13.586;2023-02-28T21:11:59;99106.72;;;-0.16;86.48
43155;BME280;34212;51.018;13.586;2023-02-28T21:17:01;99104.59;;;-0.25;86.56
43155;BME280;34212;51.018;13.586;2023-02-28T21:22:02;99105.53;;;-0.26;86.29
43155;BME280;34212;51.018;13.586;2023-02-28T21:27:04;99101.81;;;-0.22;86.01
43155;BME280;34212;51.018;13.586;2023-02-28T21:32:05;99096.56;;;-0.22;85.87
43155;BME280;34212;51.018;13.586;2023-02-28T21:37:07;99100.22;;;-0.25;85.04
43155;BME280;34212;51.018;13.586;2023-02-28T21:42:10;99100.44;;;-0.29;84.66
43155;BME280;34212;51.018;13.586;2023-02-28T21:47:13;99111.94;;;-0.32;84.25
43155;BME280;34212;51.018;13.586;2023-02-28T21:52:14;99104.31;;;-0.36;84.43
43155;BME280;34212;51.018;13.586;2023-02-28T21:57:16;99109.72;;;-0.39;84.50
43155;BME280;34212;51.018;13.586;2023-02-28T22:02:17;99108.94;;;-0.41;84.20
43155;BME280;34212;51.018;13.586;2023-02-28T22:07:19;99100.34;;;-0.43;84.34
43155;BME280;34212;51.018;13.586;2023-02-28T22:12:20;99097.16;;;-0.50;83.92
43155;BME280;34212;51.018;13.586;2023-02-28T22:17:22;99088.84;;;-0.58;83.61
43155;BME280;34212;51.018;13.586;2023-02-28T22:22:23;99098.50;;;-0.59;83.64
43155;BME280;34212;51.018;13.586;2023-02-28T22:27:26;99096.94;;;-0.63;83.56
43155;BME280;34212;51.018;13.586;2023-02-28T22:32:27;99103.25;;;-0.67;83.66
43155;BME280;34212;51.018;13.586;2023-02-28T22:37:29;99094.88;;;-0.74;83.89
43155;BME280;34212;51.018;13.586;2023-02-28T22:42:33;99088.00;;;-0.76;83.67
43155;BME280;34212;51.018;13.586;2023-02-28T22:47:35;99098.59;;;-0.78;83.56
43155;BME280;34212;51.018;13.586;2023-02-28T22:52:38;99095.25;;;-0.81;83.28
43155;BME280;34212;51.018;13.586;2023-02-28T22:57:40;99098.94;;;-0.85;82.83
43155;BME280;34212;51.018;13.586;2023-02-28T23:02:43;99107.13;;;-0.91;82.75
43155;BME280;34212;51.018;13.586;2023-02-28T23:07:45;99092.53;;;-0.97;82.89
43155;BME280;34212;51.018;13.586;2023-02-28T23:12:47;99099.56;;;-0.98;83.09
43155;BME280;34212;51.018;13.586;2023-02-28T23:17:51;99101.44;;;-1.00;82.80
43155;BME280;34212;51.018;13.586;2023-02-28T23:22:53;99098.81;;;-1.00;82.59
43155;BME280;34212;51.018;13.586;2023-02-28T23:27:54;99104.03;;;-1.00;82.36
43155;BME280;34212;51.018;13.586;2023-02-28T23:32:56;99110.97;;;-0.99;82.95
43155;BME280;34212;51.018;13.586;2023-02-28T23:37:58;99104.03;;;-1.00;82.39
43155;BME280;34212;51.018;13.586;2023-02-28T23:43:00;99112.09;;;-1.04;82.35
43155;BME280;34212;51.018;13.586;2023-02-28T23:48:02;99103.56;;;-1.08;82.42
43155;BME280;34212;51.018;13.586;2023-02-28T23:53:04;99127.34;;;-1.12;82.24
43155;BME280;34212;51.018;13.586;2023-02-28T23:58:05;99110.78;;;-1.13;82.49
